createdAt,value
2019-06-07T00:03:29.679Z,77.77
2019-06-07T00:08:28.047Z,79.20
2019-06-07T00:13:20.397Z,79.12
2019-06-07T00:18:23.124Z,78.01
2019-06-07T00:23:19.704Z,77.35
2019-06-07T00:28:13.265Z,77.55
2019-06-07T00:33:10.988Z,78.12
2019-06-07T00:38:07.145Z,77.93
2019-06-07T00:43:03.112Z,77.67
2019-06-07T00:47:58.987Z,78.31
2019-06-07T00:57:54.152Z,78.42
2019-06-07T01:02:50.302Z,77.66
2019-06-07T01:07:49.114Z,78.46
2019-06-07T01:12:44.983Z,78.23
2019-06-07T01:18:11.926Z,78.49
2019-06-07T01:22:38.391Z,78.29
2019-06-07T01:27:34.201Z,78.65
2019-06-07T01:32:31.780Z,78.39
2019-06-07T01:37:30.090Z,79.16
2019-06-07T01:42:30.492Z,79.10
2019-06-07T01:47:26.607Z,79.53
2019-06-07T01:52:23.479Z,80.50
2019-06-07T01:57:34.255Z,79.57
2019-06-07T02:02:15.955Z,80.81
2019-06-07T02:07:11.842Z,80.19
2019-06-07T02:12:25.183Z,79.78
2019-06-07T02:17:05.225Z,79.86
2019-06-07T02:22:01.119Z,80.10
2019-06-07T02:26:56.859Z,79.83
2019-06-07T02:31:53.178Z,80.54
2019-06-07T02:36:48.911Z,80.75
2019-06-07T02:41:44.795Z,79.20
2019-06-07T02:46:48.873Z,80.59
2019-06-07T02:51:41.525Z,80.80
2019-06-07T02:56:53.398Z,80.00
2019-06-07T03:01:39.435Z,79.88
2019-06-07T03:06:38.922Z,81.43
2019-06-07T03:11:36.903Z,80.97
2019-06-07T03:16:42.137Z,79.66
2019-06-07T03:21:42.719Z,80.36
2019-06-07T03:27:31.438Z,80.98
2019-06-07T03:31:41.560Z,81.57
2019-06-07T03:36:38.716Z,81.20
2019-06-07T03:41:40.082Z,82.24
2019-06-07T03:46:35.196Z,82.95
2019-06-07T03:51:30.631Z,82.81
2019-06-07T03:56:28.283Z,82.05
2019-06-07T04:01:29.017Z,82.99
2019-06-07T04:06:33.712Z,84.40
2019-06-07T04:11:30.105Z,84.05
2019-06-07T04:16:28.981Z,83.98
2019-06-07T04:21:25.903Z,84.35
2019-06-07T04:26:22.077Z,86.70
2019-06-07T04:31:18.542Z,86.07
2019-06-07T04:36:15.052Z,84.82
2019-06-07T04:41:11.214Z,85.14
2019-06-07T04:46:06.996Z,85.42
2019-06-07T04:51:05.608Z,86.37
2019-06-07T04:56:14.005Z,85.43
2019-06-07T05:01:26.295Z,83.75
2019-06-07T05:06:06.098Z,82.63
2019-06-07T05:11:01.985Z,82.65
2019-06-07T05:15:57.738Z,83.21
2019-06-07T05:20:53.617Z,82.93
2019-06-07T05:25:49.329Z,82.70
2019-06-07T05:31:05.413Z,81.65
2019-06-07T05:35:44.474Z,81.91
2019-06-07T05:40:43.738Z,81.78
2019-06-07T05:45:44.897Z,83.91
2019-06-07T05:50:44.827Z,84.17
2019-06-07T05:55:35.290Z,83.36
2019-06-07T06:00:31.137Z,82.27
2019-06-07T06:05:34.316Z,85.00
2019-06-07T06:10:24.525Z,83.58
2019-06-07T06:15:38.713Z,80.87
2019-06-07T06:20:18.368Z,81.95
2019-06-07T06:25:31.391Z,80.38
2019-06-07T06:30:13.288Z,81.11
2019-06-07T06:35:11.172Z,80.97
2019-06-07T06:40:08.753Z,80.85
2019-06-07T06:45:05.296Z,78.77
2019-06-07T06:50:02.712Z,78.77
2019-06-07T06:55:00.851Z,77.98
2019-06-07T06:59:56.560Z,81.02
2019-06-07T07:04:54.050Z,78.48
2019-06-07T07:09:54.959Z,77.10
2019-06-07T07:14:50.277Z,75.01
2019-06-07T07:19:48.440Z,75.86
2019-06-07T07:24:44.444Z,73.82
2019-06-07T07:29:43.707Z,73.26
2019-06-07T07:34:39.273Z,70.33
2019-06-07T07:39:36.743Z,68.28
2019-06-07T07:44:32.547Z,70.56
2019-06-07T07:49:28.412Z,69.39
2019-06-07T07:54:27.566Z,66.11
2019-06-07T07:59:41.146Z,65.96
2019-06-07T08:04:39.526Z,65.79
2019-06-07T08:09:20.672Z,66.99
2019-06-07T08:14:17.097Z,63.25
2019-06-07T08:19:13.029Z,64.60
2019-06-07T08:24:08.975Z,62.20
2019-06-07T08:29:05.292Z,59.81
2019-06-07T08:34:01.125Z,61.02
2019-06-07T08:39:03.054Z,59.01
2019-06-07T08:43:56.818Z,60.00
2019-06-07T08:48:53.972Z,58.82
2019-06-07T08:54:09.330Z,58.58
2019-06-07T08:58:47.235Z,57.83
2019-06-07T09:03:43.094Z,57.26
2019-06-07T09:08:38.927Z,57.48
2019-06-07T09:13:35.007Z,57.42
2019-06-07T09:18:41.833Z,57.43
2019-06-07T09:23:28.451Z,58.04
2019-06-07T09:28:25.785Z,57.62
2019-06-07T09:33:21.587Z,57.49
2019-06-07T09:38:25.798Z,59.46
2019-06-07T09:48:16.493Z,57.65
2019-06-07T09:53:22.018Z,56.28
2019-06-07T09:58:49.741Z,55.98
2019-06-07T10:03:17.882Z,57.47
2019-06-07T10:08:25.865Z,57.74
2019-06-07T10:13:06.462Z,56.90
2019-06-07T10:18:00.908Z,57.53
2019-06-07T10:22:56.800Z,56.01
2019-06-07T10:27:52.623Z,56.29
2019-06-07T10:32:52.134Z,57.46
2019-06-07T10:37:46.367Z,55.79
2019-06-07T10:42:42.274Z,56.03
2019-06-07T10:47:38.236Z,56.61
2019-06-07T10:52:34.034Z,55.37
2019-06-07T10:57:29.853Z,56.01
2019-06-07T11:02:25.685Z,54.79
2019-06-07T11:07:32.579Z,54.88
2019-06-07T11:12:32.672Z,55.09
2019-06-07T11:17:28.593Z,51.89
2019-06-07T11:22:24.574Z,54.17
2019-06-07T11:27:20.548Z,54.47
2019-06-07T11:32:16.707Z,52.62
2019-06-07T11:37:13.788Z,51.74
2019-06-07T11:42:20.052Z,52.64
2019-06-07T11:47:19.221Z,50.55
2019-06-07T11:52:19.921Z,49.49
2019-06-07T11:57:25.060Z,49.78
2019-06-07T12:02:43.329Z,47.73
2019-06-07T12:08:03.447Z,51.93
2019-06-07T12:13:27.728Z,51.50
2019-06-07T12:18:48.754Z,52.14
2019-06-07T12:24:21.980Z,51.56
2019-06-07T12:29:24.344Z,45.36
2019-06-07T12:34:21.671Z,48.77
2019-06-07T12:39:18.063Z,47.52
2019-06-07T12:44:14.562Z,50.16
2019-06-07T12:49:12.972Z,48.64
2019-06-07T12:54:15.356Z,50.49
2019-06-07T12:59:11.548Z,51.35
2019-06-07T13:04:14.347Z,51.57
2019-06-07T13:09:19.975Z,51.16
2019-06-07T13:14:25.257Z,51.28
2019-06-07T13:19:22.084Z,49.66
2019-06-07T13:24:19.045Z,50.70
2019-06-07T13:29:18.731Z,49.20
2019-06-07T13:34:16.097Z,48.37
2019-06-07T13:39:12.559Z,49.21
2019-06-07T13:44:08.396Z,49.51
2019-06-07T13:49:04.273Z,44.98
2019-06-07T13:54:00.214Z,45.50
2019-06-07T13:58:56.333Z,42.55
2019-06-07T14:04:51.284Z,43.48
2019-06-07T14:09:37.345Z,43.46
2019-06-07T14:15:24.870Z,42.45
2019-06-07T14:26:48.918Z,39.53
2019-06-07T14:31:44.053Z,40.36
2019-06-07T14:36:54.599Z,41.67
2019-06-07T14:42:09.862Z,45.87
2019-06-07T14:47:28.234Z,40.89
2019-06-07T14:53:00.548Z,40.95
2019-06-07T14:58:53.033Z,50.17
2019-06-07T15:03:44.708Z,50.96
2019-06-07T15:08:40.616Z,52.58
2019-06-07T15:13:36.448Z,52.79
2019-06-07T15:18:36.161Z,52.30
2019-06-07T15:23:33.473Z,49.92
2019-06-07T15:28:30.224Z,51.00
2019-06-07T15:38:35.173Z,49.10
2019-06-07T15:43:31.459Z,49.71
2019-06-07T15:48:27.354Z,49.76
2019-06-07T15:53:24.170Z,51.82
2019-06-07T15:58:20.388Z,50.12
2019-06-07T16:03:16.542Z,49.00
2019-06-07T16:08:13.079Z,48.98
2019-06-07T16:13:08.958Z,48.01
2019-06-07T16:18:05.247Z,48.19
2019-06-07T16:23:01.336Z,49.86
2019-06-07T16:27:57.359Z,50.08
2019-06-07T16:32:54.515Z,51.15
2019-06-07T16:37:52.293Z,51.81
2019-06-07T16:42:49.106Z,52.49
2019-06-07T16:48:00.006Z,49.02
2019-06-07T16:52:59.504Z,48.34
2019-06-07T16:58:23.139Z,47.93
2019-06-07T17:03:21.097Z,48.43
2019-06-07T17:08:40.279Z,50.90
2019-06-07T17:13:44.449Z,49.03
2019-06-07T17:18:45.487Z,47.62
2019-06-07T17:24:09.216Z,47.50
2019-06-07T17:29:09.126Z,46.47
2019-06-07T17:34:05.034Z,48.30
2019-06-07T17:39:12.579Z,48.12
2019-06-07T17:44:16.662Z,49.83
2019-06-07T17:49:14.725Z,50.57
2019-06-07T17:54:15.161Z,50.45
2019-06-07T17:59:12.699Z,49.75
2019-06-07T18:04:09.598Z,49.10
2019-06-07T18:09:09.550Z,48.87
2019-06-07T18:14:10.998Z,46.83
2019-06-07T18:19:11.937Z,46.87
2019-06-07T18:24:11.724Z,46.55
2019-06-07T18:29:11.534Z,46.85
2019-06-07T18:34:13.230Z,49.08
2019-06-07T18:39:12.344Z,48.28
2019-06-07T18:44:21.587Z,50.69
2019-06-07T18:49:32.127Z,48.41
2019-06-07T18:54:28.630Z,48.58
2019-06-07T18:59:35.033Z,47.75
2019-06-07T19:10:45.237Z,47.84
2019-06-07T19:15:49.447Z,47.02
2019-06-07T19:20:47.962Z,47.84
2019-06-07T19:26:01.002Z,46.82
2019-06-07T19:30:59.159Z,47.68
2019-06-07T19:35:57.906Z,47.78
2019-06-07T19:40:54.011Z,47.51
2019-06-07T19:45:58.275Z,49.32
2019-06-07T19:50:56.861Z,47.56
2019-06-07T19:55:55.442Z,47.56
2019-06-07T20:01:02.137Z,49.15
2019-06-07T20:06:00.129Z,48.06
2019-06-07T20:10:56.460Z,48.66
2019-06-07T20:16:03.017Z,49.69
2019-06-07T20:21:00.664Z,48.80
2019-06-07T20:26:00.609Z,49.99
2019-06-07T20:30:59.801Z,49.31
2019-06-07T20:35:56.651Z,50.04
2019-06-07T20:40:54.804Z,50.14
2019-06-07T20:45:59.173Z,50.64
2019-06-07T20:50:54.777Z,51.29
2019-06-07T20:55:51.024Z,52.10
2019-06-07T21:00:46.937Z,51.03
2019-06-07T21:05:53.827Z,51.54
2019-06-07T21:10:49.998Z,50.87
2019-06-07T21:15:58.245Z,51.54
2019-06-07T21:20:56.998Z,53.16
2019-06-07T21:25:56.381Z,51.66
2019-06-07T21:30:52.424Z,52.30
2019-06-07T21:35:49.859Z,52.47
2019-06-07T21:40:56.224Z,52.66
2019-06-07T21:46:05.493Z,52.22
2019-06-07T21:51:10.682Z,51.99
2019-06-07T21:56:09.231Z,52.51
2019-06-07T22:01:29.355Z,51.99
2019-06-07T22:06:25.647Z,52.71
2019-06-07T22:11:22.535Z,53.31
2019-06-07T22:16:30.650Z,52.56
2019-06-07T22:21:26.662Z,52.70
2019-06-07T22:26:22.952Z,53.02
2019-06-07T22:31:20.291Z,52.90
2019-06-07T22:36:16.471Z,54.55
2019-06-07T22:41:15.853Z,54.32
2019-06-07T22:46:10.856Z,54.38
2019-06-07T22:51:10.779Z,55.27
2019-06-07T22:56:13.950Z,55.77
2019-06-07T23:01:17.093Z,56.40
2019-06-07T23:06:25.573Z,56.45
2019-06-07T23:11:21.853Z,55.19
2019-06-07T23:16:17.900Z,56.22
2019-06-07T23:21:13.859Z,55.65
2019-06-07T23:26:10.076Z,55.38
2019-06-07T23:31:06.138Z,55.16
2019-06-07T23:36:02.097Z,56.71
2019-06-07T23:40:57.995Z,57.10
2019-06-07T23:45:53.997Z,55.04
2019-06-07T23:50:50.012Z,55.65
2019-06-07T23:55:54.527Z,57.38
